Time;durP1;ratioP1;P1;durP2;ratioP2;P2;SDS_P1;SDS_P2;PMS_P1;PMS_P2;Temp;Humidity;BMP_temperature;BMP_pressure;BME280_temperature;BME280_humidity;BME280_pressure;Samples;Min_cycle;Max_cycle;Signal;HPM_P1;HPM_P2
2022/05/17 00:01:01;;;;;;;9.05;5.35;;;;;;;19.48;58.27;99811.06;4311954;33;34827;-78
2022/05/17 00:03:48;;;;;;;9.52;6.00;;;;;;;19.39;58.32;99795.81;4310775;33;33622;-78
2022/05/17 00:06:34;;;;;;;11.80;5.35;;;;;;;19.31;58.30;99795.66;4312501;33;34344;-78
2022/05/17 00:09:21;;;;;;;9.55;5.45;;;;;;;19.00;59.25;99795.78;4300963;33;35713;-78
2022/05/17 00:12:07;;;;;;;9.43;5.43;;;;;;;18.80;60.06;99790.19;4313225;33;35587;-78
2022/05/17 00:14:54;;;;;;;10.50;5.25;;;;;;;18.53;61.13;99780.84;4314854;33;34744;-78
2022/05/17 00:17:41;;;;;;;9.27;5.32;;;;;;;19.09;59.73;99777.72;4313724;33;35583;-78
2022/05/17 00:20:27;;;;;;;9.60;5.70;;;;;;;18.74;60.54;99772.22;4303977;33;34814;-78
2022/05/17 00:23:17;;;;;;;8.02;5.10;;;;;;;18.50;61.59;99776.03;4315206;33;34809;-78
2022/05/17 00:26:05;;;;;;;12.02;5.57;;;;;;;18.58;61.17;99771.41;4304982;33;34188;-78
2022/05/17 00:28:51;;;;;;;11.55;4.97;;;;;;;18.56;61.42;99776.56;4303876;33;35457;-78
2022/05/17 00:31:37;;;;;;;12.20;5.80;;;;;;;17.42;65.02;99769.69;4313908;33;35754;-78
2022/05/17 00:34:24;;;;;;;10.77;5.55;;;;;;;18.27;62.64;99775.06;4313672;33;35476;-78
2022/05/17 00:37:11;;;;;;;9.00;5.20;;;;;;;17.97;63.07;99775.53;4314547;33;35169;-78
2022/05/17 00:39:57;;;;;;;8.48;5.32;;;;;;;17.16;65.86;99775.69;4313586;33;34654;-78
2022/05/17 00:42:43;;;;;;;10.30;6.97;;;;;;;18.28;62.17;99773.91;4314082;33;35983;-78
2022/05/17 00:45:30;;;;;;;9.43;5.53;;;;;;;18.51;61.66;99772.06;4313848;33;34613;-78
2022/05/17 00:48:18;;;;;;;8.15;5.62;;;;;;;18.98;59.91;99773.13;4311527;33;34082;-78
2022/05/17 00:51:04;;;;;;;9.77;5.10;;;;;;;18.87;60.11;99770.13;4313140;33;34171;-78
2022/05/17 00:53:51;;;;;;;10.90;5.40;;;;;;;18.90;59.80;99763.84;4312874;33;35944;-78
2022/05/17 00:56:41;;;;;;;7.40;5.37;;;;;;;18.69;60.25;99772.47;4313333;33;34214;-78
2022/05/17 00:59:27;;;;;;;9.90;5.20;;;;;;;18.61;60.59;99757.66;4302738;33;34205;-78
2022/05/17 01:02:13;;;;;;;7.70;5.22;;;;;;;17.96;63.29;99765.59;4311260;33;34612;-78
2022/05/17 01:05:03;;;;;;;9.68;5.28;;;;;;;17.72;64.25;99750.69;4313778;33;33907;-78
2022/05/17 01:07:52;;;;;;;9.73;5.32;;;;;;;18.16;62.63;99752.62;4310650;33;35424;-78
2022/05/17 01:10:39;;;;;;;10.68;5.75;;;;;;;18.37;61.96;99755.91;4302448;33;34084;-78
2022/05/17 01:16:30;;;;;;;10.20;5.25;;;;;;;18.47;62.01;99746.22;4314417;33;36282;-78
2022/05/17 01:19:17;;;;;;;8.85;5.25;;;;;;;18.61;61.09;99737.41;4313258;33;35682;-78
2022/05/17 01:22:03;;;;;;;9.20;5.43;;;;;;;18.63;61.36;99746.16;4311701;33;34152;-78
2022/05/17 01:24:50;;;;;;;9.27;5.72;;;;;;;18.61;61.28;99737.41;4313338;33;34591;-78
2022/05/17 01:27:49;;;;;;;9.50;5.35;;;;;;;17.95;64.35;99745.38;4313679;33;34965;-78
2022/05/17 01:30:36;;;;;;;13.57;5.53;;;;;;;18.33;63.11;99740.34;4313967;33;34742;-78
2022/05/17 01:33:22;;;;;;;9.30;5.50;;;;;;;18.01;63.65;99756.19;4313497;33;34264;-78
2022/05/17 01:36:10;;;;;;;7.90;5.00;;;;;;;18.37;63.07;99750.34;4314018;33;34580;-78
2022/05/17 01:38:57;;;;;;;15.45;5.00;;;;;;;18.75;60.67;99737.75;4301638;33;34581;-78
2022/05/17 01:41:43;;;;;;;8.93;5.43;;;;;;;18.21;62.19;99744.00;4302748;33;34423;-77
2022/05/17 01:44:30;;;;;;;12.77;5.37;;;;;;;17.60;64.55;99738.91;4313315;33;34704;-78
2022/05/17 01:47:16;;;;;;;10.05;5.47;;;;;;;17.98;63.87;99736.34;4313596;33;33776;-77
2022/05/17 01:50:03;;;;;;;10.07;5.25;;;;;;;17.93;63.81;99731.09;4313562;33;35525;-78
2022/05/17 01:52:49;;;;;;;10.35;5.10;;;;;;;18.48;61.84;99724.84;4310901;33;35503;-78
2022/05/17 01:55:36;;;;;;;10.55;5.47;;;;;;;18.75;61.17;99734.16;4310944;33;33901;-78
2022/05/17 01:58:23;;;;;;;8.55;4.95;;;;;;;18.87;60.78;99731.28;4302933;33;34372;-78
2022/05/17 02:01:10;;;;;;;8.25;5.03;;;;;;;18.93;60.50;99729.81;4314131;33;35946;-78
2022/05/17 02:03:57;;;;;;;7.68;5.18;;;;;;;18.89;60.55;99734.47;4313195;33;34575;-78
2022/05/17 02:06:43;;;;;;;8.55;4.68;;;;;;;19.00;60.14;99740.25;4312931;33;33893;-78
2022/05/17 02:09:29;;;;;;;8.23;5.18;;;;;;;18.94;59.63;99736.97;4313283;33;34211;-78
2022/05/17 02:12:17;;;;;;;10.30;5.28;;;;;;;17.84;64.19;99741.53;4313263;33;35204;-78
2022/05/17 02:15:05;;;;;;;11.38;5.07;;;;;;;18.48;62.85;99731.19;4313087;33;34878;-78
2022/05/17 02:17:52;;;;;;;12.52;5.15;;;;;;;18.61;61.20;99726.28;4302354;33;35313;-78
2022/05/17 02:20:38;;;;;;;9.20;5.25;;;;;;;18.13;63.78;99731.12;4313128;33;34645;-78
2022/05/17 02:23:24;;;;;;;10.52;5.30;;;;;;;18.71;61.41;99717.41;4314173;33;34601;-78
2022/05/17 02:26:11;;;;;;;12.00;5.40;;;;;;;18.77;60.94;99720.75;4312969;33;35075;-77
2022/05/17 02:28:57;;;;;;;9.55;5.45;;;;;;;18.73;61.46;99720.63;4313156;33;33854;-78
2022/05/17 02:31:44;;;;;;;13.23;6.15;;;;;;;18.71;61.93;99716.63;4313290;33;34580;-78
2022/05/17 02:34:31;;;;;;;9.35;5.12;;;;;;;18.59;62.64;99714.78;4311580;33;34377;-78
2022/05/17 02:37:18;;;;;;;11.73;6.32;;;;;;;17.96;65.04;99732.34;4312535;33;34851;-78
2022/05/17 02:40:05;;;;;;;9.85;5.30;;;;;;;18.50;63.69;99722.47;4312600;33;33140;-78
2022/05/17 02:42:51;;;;;;;10.48;5.35;;;;;;;18.56;63.19;99726.59;4301819;33;34670;-77
2022/05/17 02:45:37;;;;;;;8.95;5.43;;;;;;;18.40;63.77;99727.44;4311788;33;34522;-78
2022/05/17 02:48:24;;;;;;;9.40;5.40;;;;;;;18.12;64.23;99730.34;4313079;33;34568;-78
2022/05/17 02:51:17;;;;;;;12.68;5.10;;;;;;;18.32;63.98;99739.53;4312397;33;33833;-78
2022/05/17 02:54:06;;;;;;;9.32;5.18;;;;;;;18.96;62.07;99737.41;4302059;33;34576;-78
2022/05/17 02:56:52;;;;;;;10.68;5.82;;;;;;;18.98;61.64;99735.09;4301536;33;35030;-78
2022/05/17 02:59:38;;;;;;;8.30;5.78;;;;;;;19.03;61.60;99731.97;4312948;33;34608;-78
2022/05/17 03:02:26;;;;;;;8.00;5.10;;;;;;;18.83;62.64;99736.72;4311284;33;34053;-78
2022/05/17 03:05:13;;;;;;;11.27;5.75;;;;;;;18.87;62.24;99736.81;4311902;33;34149;-77
2022/05/17 03:08:00;;;;;;;11.93;5.82;;;;;;;17.10;70.54;99763.25;4312331;33;34099;-77
2022/05/17 03:10:46;;;;;;;10.88;5.60;;;;;;;17.16;70.48;99755.50;4312292;33;34530;-78
2022/05/17 03:13:34;;;;;;;10.63;5.85;;;;;;;17.20;69.99;99746.12;4299163;33;34371;-77
2022/05/17 03:16:20;;;;;;;10.80;5.72;;;;;;;17.33;69.69;99754.38;4284468;33;35582;-77
2022/05/17 03:19:07;;;;;;;9.70;5.22;;;;;;;18.09;66.86;99753.25;4282219;33;34910;-78
2022/05/17 03:21:53;;;;;;;10.50;5.62;;;;;;;18.40;65.09;99755.19;4283931;33;34257;-77
2022/05/17 03:24:39;;;;;;;12.15;5.47;;;;;;;18.50;64.11;99755.78;4284219;33;33845;-77
2022/05/17 03:27:45;;;;;;;11.98;6.03;;;;;;;18.70;63.76;99754.66;4283507;33;36230;-78
2022/05/17 03:30:32;;;;;;;12.20;5.85;;;;;;;18.28;65.40;99760.84;4291110;33;35894;-78
2022/05/17 03:33:18;;;;;;;11.48;5.43;;;;;;;18.74;63.90;99761.12;4292306;33;35507;-78
2022/05/17 03:36:05;;;;;;;9.73;5.32;;;;;;;19.05;62.61;99753.84;4292338;33;35073;-78
2022/05/17 03:38:51;;;;;;;10.20;5.43;;;;;;;19.12;62.01;99756.75;4283146;33;35546;-78
2022/05/17 03:41:38;;;;;;;10.18;5.47;;;;;;;19.01;62.42;99755.72;4282030;33;34845;-77
2022/05/17 03:44:24;;;;;;;9.60;5.05;;;;;;;19.15;61.97;99758.81;4272396;33;36511;-78
2022/05/17 03:47:11;;;;;;;7.20;4.97;;;;;;;18.99;62.28;99756.13;4294705;33;34031;-77
2022/05/17 03:49:59;;;;;;;8.13;4.50;;;;;;;19.10;61.60;99748.81;4292575;33;34367;-78
2022/05/17 03:52:45;;;;;;;11.55;6.53;;;;;;;18.99;61.43;99761.66;4285479;33;36853;-77
2022/05/17 03:55:32;;;;;;;8.80;5.00;;;;;;;18.66;62.06;99748.22;4294238;33;34683;-78
2022/05/17 03:58:18;;;;;;;8.63;4.60;;;;;;;18.91;61.05;99746.03;4285113;33;34191;-78
2022/05/17 04:01:05;;;;;;;9.93;5.00;;;;;;;19.52;59.39;99741.66;4285153;33;34567;-78
2022/05/17 04:03:51;;;;;;;9.23;4.43;;;;;;;19.77;58.69;99748.50;4283497;33;36031;-78
2022/05/17 04:06:42;;;;;;;7.25;4.20;;;;;;;19.92;57.80;99745.97;4280095;33;176168;-78
2022/05/17 04:09:28;;;;;;;9.88;4.40;;;;;;;20.05;57.62;99747.38;4285523;33;34059;-78
2022/05/17 04:12:15;;;;;;;7.68;4.78;;;;;;;20.05;57.15;99752.16;4293874;33;35448;-78
2022/05/17 04:15:03;;;;;;;8.90;4.57;;;;;;;20.30;56.60;99741.44;4285290;33;35020;-78
2022/05/17 04:17:51;;;;;;;7.80;4.10;;;;;;;20.38;56.48;99751.50;4293800;33;35472;-78
2022/05/17 04:20:37;;;;;;;10.23;4.57;;;;;;;20.43;56.22;99753.94;4284242;33;34222;-78
2022/05/17 04:23:23;;;;;;;11.38;4.60;;;;;;;20.35;56.79;99753.03;4284713;33;34709;-78
2022/05/17 04:26:10;;;;;;;8.15;4.22;;;;;;;20.11;56.48;99748.69;4285053;33;33886;-78
2022/05/17 04:28:56;;;;;;;9.63;4.93;;;;;;;20.19;57.55;99749.59;4285456;33;34708;-78
2022/05/17 04:31:43;;;;;;;8.07;4.40;;;;;;;19.21;59.09;99740.69;4285451;33;33841;-78
2022/05/17 04:34:31;;;;;;;10.55;5.10;;;;;;;19.93;57.76;99747.59;4284609;33;34682;-78
2022/05/17 04:37:17;;;;;;;8.40;4.82;;;;;;;19.58;58.77;99754.09;4284791;33;35942;-78
2022/05/17 04:40:08;;;;;;;9.82;4.53;;;;;;;19.44;59.60;99746.28;4284064;33;34046;-78
2022/05/17 04:42:57;;;;;;;8.85;4.90;;;;;;;19.31;59.19;99745.62;4303598;33;34110;-78
2022/05/17 04:45:44;;;;;;;9.48;4.50;;;;;;;19.60;58.68;99734.25;4284718;33;34187;-78
2022/05/17 04:48:31;;;;;;;15.00;5.20;;;;;;;19.01;60.82;99745.44;4284202;33;36040;-77
2022/05/17 04:51:17;;;;;;;10.10;5.10;;;;;;;18.97;61.12;99738.22;4286423;33;34758;-77
2022/05/17 04:54:04;;;;;;;11.00;4.87;;;;;;;19.08;60.53;99744.78;4285356;33;33836;-77
2022/05/17 04:56:50;;;;;;;10.23;5.62;;;;;;;18.57;62.70;99755.94;4291206;33;34644;-77
2022/05/17 04:59:41;;;;;;;10.13;5.53;;;;;;;19.16;61.01;99757.66;4285953;33;36000;-77
2022/05/17 05:02:27;;;;;;;9.18;6.07;;;;;;;18.43;63.20;99751.69;4304909;33;35404;-77
2022/05/17 05:05:15;;;;;;;10.13;5.40;;;;;;;17.94;65.67;99752.09;4285210;33;34352;-77
2022/05/17 05:08:02;;;;;;;14.73;5.78;;;;;;;18.36;64.24;99753.50;4283312;33;35538;-76
2022/05/17 05:10:48;;;;;;;11.07;5.00;;;;;;;18.42;64.18;99750.06;4285474;33;34583;-77
2022/05/17 05:13:35;;;;;;;9.70;5.07;;;;;;;18.70;63.08;99739.97;4296856;33;35465;-77
2022/05/17 05:16:21;;;;;;;10.13;5.03;;;;;;;18.67;61.78;99749.84;4313780;33;35123;-76
2022/05/17 05:19:07;;;;;;;13.40;5.72;;;;;;;18.76;60.99;99750.47;4314288;33;34245;-76
2022/05/17 05:21:55;;;;;;;14.98;5.75;;;;;;;18.65;61.21;99741.06;4312170;33;35074;-76
2022/05/17 05:24:41;;;;;;;11.35;6.32;;;;;;;18.74;61.45;99746.44;4314201;33;34685;-76
2022/05/17 05:27:32;;;;;;;10.88;6.10;;;;;;;18.62;61.08;99753.69;4314400;33;35031;-77
2022/05/17 05:30:19;;;;;;;17.17;6.75;;;;;;;19.25;60.42;99754.66;4302347;33;34099;-76
2022/05/17 05:33:06;;;;;;;10.85;6.22;;;;;;;19.56;58.97;99762.00;4313673;33;34983;-78
2022/05/17 05:35:53;;;;;;;11.25;5.97;;;;;;;19.29;60.07;99756.31;4313931;33;35098;-78
2022/05/17 05:38:39;;;;;;;10.63;6.30;;;;;;;19.67;58.91;99751.91;4313635;33;33699;-77
2022/05/17 05:41:27;;;;;;;10.18;6.50;;;;;;;19.89;59.39;99752.28;4313140;33;34636;-77
2022/05/17 05:44:13;;;;;;;12.07;6.50;;;;;;;19.84;57.96;99756.19;4313788;33;34933;-77
2022/05/17 05:46:59;;;;;;;11.23;6.28;;;;;;;19.09;60.63;99749.16;4312694;33;35425;-77
2022/05/17 05:49:46;;;;;;;12.37;6.62;;;;;;;19.03;61.41;99754.19;4311526;33;33930;-77
2022/05/17 05:52:35;;;;;;;12.93;7.22;;;;;;;19.13;61.34;99750.06;4313709;33;34206;-76
2022/05/17 05:55:22;;;;;;;12.48;7.15;;;;;;;19.04;61.46;99746.66;4312636;33;34960;-76
2022/05/17 05:58:10;;;;;;;11.38;7.32;;;;;;;19.17;61.70;99750.13;4313937;33;34798;-76
2022/05/17 06:00:57;;;;;;;15.52;6.93;;;;;;;18.92;62.67;99744.84;4311949;33;33948;-76
2022/05/17 06:03:43;;;;;;;9.50;6.40;;;;;;;19.12;62.58;99753.19;4302735;33;34531;-76
2022/05/17 06:06:30;;;;;;;10.60;6.53;;;;;;;19.23;62.95;99763.34;4312133;33;34916;-77
2022/05/17 06:09:16;;;;;;;10.57;5.80;;;;;;;19.07;63.69;99751.53;4312650;33;35201;-75
2022/05/17 06:12:03;;;;;;;10.30;6.35;;;;;;;19.24;64.05;99766.91;4313437;33;33909;-76
2022/05/17 06:14:49;;;;;;;10.70;5.47;;;;;;;19.53;64.10;99774.66;4313099;33;34299;-75
2022/05/17 06:17:39;;;;;;;11.18;5.90;;;;;;;19.33;64.74;99787.75;4313449;33;34938;-77
2022/05/17 06:20:26;;;;;;;13.23;6.13;;;;;;;19.79;64.18;99780.72;4313066;33;34720;-76
2022/05/17 06:23:12;;;;;;;13.25;6.20;;;;;;;19.42;64.81;99775.62;4313382;33;34393;-76
2022/05/17 06:25:59;;;;;;;15.32;6.43;;;;;;;19.68;64.86;99775.75;4313200;33;34647;-76
2022/05/17 06:28:47;;;;;;;9.40;5.18;;;;;;;19.45;65.70;99772.09;4312403;33;35021;-76
2022/05/17 06:31:33;;;;;;;11.30;5.47;;;;;;;19.60;65.71;99781.50;4313208;33;36754;-76
2022/05/17 06:34:20;;;;;;;10.48;5.53;;;;;;;19.85;65.15;99782.00;4312574;33;34989;-76
2022/05/17 06:37:08;;;;;;;10.50;5.87;;;;;;;19.79;65.31;99770.38;4311987;33;34669;-77
2022/05/17 06:39:55;;;;;;;10.02;5.07;;;;;;;20.11;64.40;99773.72;4312461;33;34974;-77
2022/05/17 06:42:42;;;;;;;8.65;5.25;;;;;;;20.23;64.11;99789.41;4302308;33;35426;-77
2022/05/17 06:45:28;;;;;;;8.93;5.40;;;;;;;20.08;65.32;99787.56;4314337;33;33862;-77
2022/05/17 06:48:16;;;;;;;15.73;6.32;;;;;;;20.15;65.00;99782.94;4313703;33;34557;-76
2022/05/17 06:51:07;;;;;;;12.52;5.10;;;;;;;20.07;65.08;99784.00;4312768;33;37354;-75
2022/05/17 06:53:53;;;;;;;10.27;4.75;;;;;;;20.40;63.83;99782.50;4313164;33;34882;-77
2022/05/17 06:56:40;;;;;;;8.77;4.93;;;;;;;20.32;63.92;99803.87;4313611;33;35403;-76
2022/05/17 06:59:30;;;;;;;7.37;4.30;;;;;;;20.69;62.90;99783.81;4312685;33;34462;-78
2022/05/17 07:02:17;;;;;;;7.75;4.85;;;;;;;20.87;62.18;99792.41;4301665;33;35491;-77
2022/05/17 07:05:05;;;;;;;9.10;4.68;;;;;;;20.84;63.70;99790.38;4311945;33;34643;-77
2022/05/17 07:07:54;;;;;;;7.43;4.37;;;;;;;20.86;63.26;99788.81;4311705;33;34669;-76
2022/05/17 07:13:45;;;;;;;6.43;4.40;;;;;;;20.66;62.74;99796.50;4307032;33;34933;-76
2022/05/17 07:16:33;;;;;;;8.93;4.10;;;;;;;20.62;62.04;99790.03;4309922;33;35619;-77
2022/05/17 07:19:19;;;;;;;8.05;4.22;;;;;;;20.71;62.51;99791.75;4314430;33;33593;-77
2022/05/17 07:22:23;;;;;;;8.82;4.43;;;;;;;20.55;62.75;99789.13;4313532;33;34524;-77
2022/05/17 07:25:10;;;;;;;8.77;4.10;;;;;;;20.25;63.37;99786.25;4312606;33;35656;-78
2022/05/17 07:27:58;;;;;;;8.00;3.87;;;;;;;20.97;61.78;99788.94;4302714;33;34675;-76
2022/05/17 07:30:45;;;;;;;7.87;4.18;;;;;;;21.40;60.73;99786.72;4313931;33;34769;-77
2022/05/17 07:33:31;;;;;;;8.40;4.47;;;;;;;21.34;60.63;99791.81;4311913;33;34291;-78
2022/05/17 07:36:18;;;;;;;6.32;3.53;;;;;;;21.02;61.81;99796.16;4309883;33;34533;-78
2022/05/17 07:39:06;;;;;;;7.75;3.83;;;;;;;20.84;63.20;99802.31;4312165;33;35087;-76
2022/05/17 07:41:52;;;;;;;8.35;4.15;;;;;;;20.96;62.15;99803.25;4311533;33;34236;-78
2022/05/17 07:44:39;;;;;;;8.75;4.18;;;;;;;20.64;63.58;99798.84;4312371;33;34638;-79
2022/05/17 07:47:25;;;;;;;9.27;4.85;;;;;;;21.31;62.82;99802.91;4311312;33;36490;-76
2022/05/17 07:50:12;;;;;;;8.20;4.10;;;;;;;20.97;63.95;99805.66;4311596;33;34859;-79
2022/05/17 07:53:04;;;;;;;5.60;3.95;;;;;;;20.97;65.09;99788.13;4311092;33;34863;-80
2022/05/17 07:55:51;;;;;;;8.45;4.93;;;;;;;20.96;63.86;99808.81;4313880;33;36369;-77
2022/05/17 07:58:36;;;;;;;8.43;4.22;;;;;;;20.10;66.81;99791.59;4311604;33;34590;-80
2022/05/17 08:01:23;;;;;;;7.40;4.40;;;;;;;20.37;67.50;99811.09;4311563;33;34222;-77
2022/05/17 08:04:09;;;;;;;8.05;4.43;;;;;;;20.34;67.26;99801.50;4310914;33;33720;-79
2022/05/17 08:06:56;;;;;;;7.57;5.12;;;;;;;20.03;69.85;99799.00;4311566;33;35662;-76
2022/05/17 08:09:42;;;;;;;7.22;4.80;;;;;;;19.63;70.38;99812.16;4301100;33;35851;-78
2022/05/17 08:12:31;;;;;;;7.45;4.47;;;;;;;19.79;69.52;99816.84;4310990;33;34211;-80
2022/05/17 08:15:19;;;;;;;7.60;5.20;;;;;;;19.89;69.98;99817.03;4307406;33;33935;-76
2022/05/17 08:18:06;;;;;;;7.82;4.95;;;;;;;19.79;69.42;99814.88;4312063;33;35403;-77
2022/05/17 08:20:52;;;;;;;8.98;5.70;;;;;;;19.93;69.50;99815.12;4302044;33;35054;-76
2022/05/17 08:23:39;;;;;;;9.20;5.50;;;;;;;19.93;69.07;99814.34;4311118;33;35536;-77
2022/05/17 08:29:30;;;;;;;8.80;5.72;;;;;;;20.17;67.54;99822.28;4311784;33;34622;-77
2022/05/17 08:35:27;;;;;;;6.78;4.78;;;;;;;20.22;67.71;99827.56;4314124;33;34630;-78
2022/05/17 08:38:16;;;;;;;9.43;5.20;;;;;;;19.67;69.12;99835.31;4313230;33;34235;-78
2022/05/17 08:41:11;;;;;;;8.73;5.35;;;;;;;19.81;69.28;99831.16;4301983;33;34662;-77
2022/05/17 08:44:02;;;;;;;8.65;5.03;;;;;;;19.44;70.09;99842.72;4312040;33;34192;-78
2022/05/17 08:47:01;;;;;;;10.50;5.78;;;;;;;19.69;69.44;99835.72;4315091;33;34777;-78
2022/05/17 08:50:10;;;;;;;9.30;5.65;;;;;;;19.61;69.30;99839.53;4311648;33;35373;-78
2022/05/17 08:52:56;;;;;;;10.15;5.62;;;;;;;19.10;71.67;99839.66;4314111;33;34650;-78
2022/05/17 08:55:43;;;;;;;10.55;5.85;;;;;;;19.22;71.83;99849.81;4314344;33;35070;-77
2022/05/17 08:58:31;;;;;;;11.50;7.07;;;;;;;19.07;74.78;99848.72;4313997;33;35156;-77
2022/05/17 09:01:24;;;;;;;12.63;8.18;;;;;;;18.27;82.22;99852.72;4306834;33;34187;-76
2022/05/17 09:04:10;;;;;;;13.93;8.43;;;;;;;17.71;93.65;99865.47;4303518;33;35671;-75
2022/05/17 09:07:20;;;;;;;14.43;8.98;;;;;;;18.03;93.94;99870.31;4314184;33;36414;-76
2022/05/17 09:10:28;;;;;;;19.10;10.13;;;;;;;18.03;97.16;99862.81;4312899;33;34628;-76
2022/05/17 09:13:23;;;;;;;17.37;10.52;;;;;;;17.66;100.00;99859.38;4312016;33;34264;-77
2022/05/17 09:16:09;;;;;;;17.42;12.18;;;;;;;18.18;98.54;99856.47;4314741;33;34305;-80
2022/05/17 09:18:56;;;;;;;19.90;10.75;;;;;;;17.46;100.00;99858.44;4319210;33;35893;-77
2022/05/17 09:21:44;;;;;;;17.17;10.48;;;;;;;17.95;100.00;99852.69;4318636;33;34746;-78
2022/05/17 09:24:37;;;;;;;15.18;10.50;;;;;;;18.09;100.00;99855.03;4308677;33;34419;-78
2022/05/17 09:27:37;;;;;;;15.25;11.25;;;;;;;18.30;100.00;99847.28;4318642;33;34633;-79
2022/05/17 09:30:24;;;;;;;16.10;10.82;;;;;;;18.11;100.00;99852.72;4308544;33;35953;-79
2022/05/17 09:33:14;;;;;;;19.17;11.05;;;;;;;18.25;99.21;99858.63;4319268;33;34630;-79
2022/05/17 09:36:01;;;;;;;;;;;;;;;18.17;100.00;99848.50;4318446;33;35202;-79
2022/05/17 09:38:49;;;;;;;16.40;9.98;;;;;;;17.98;100.00;99847.22;4317811;33;34881;-79
2022/05/17 09:41:40;;;;;;;17.48;10.93;;;;;;;18.33;100.00;99846.56;4307091;33;35099;-79
2022/05/17 09:44:49;;;;;;;19.17;11.52;;;;;;;18.19;100.00;99846.19;4319465;33;35749;-79
2022/05/17 09:47:43;;;;;;;16.05;9.38;;;;;;;18.54;100.00;99843.50;4308166;33;34479;-79
2022/05/17 09:53:51;;;;;;;14.93;8.75;;;;;;;18.46;96.78;99835.34;4316352;33;35000;-79
2022/05/17 09:56:38;;;;;;;15.65;9.57;;;;;;;18.51;99.15;99837.88;4317175;33;34633;-80
2022/05/17 09:59:25;;;;;;;13.43;8.75;;;;;;;18.40;99.18;99835.63;4316541;33;34827;-79
2022/05/17 10:02:28;;;;;;;12.00;8.43;;;;;;;18.66;97.18;99843.38;4316780;33;34418;-79
2022/05/17 10:05:29;;;;;;;13.32;8.65;;;;;;;18.72;97.98;99837.56;4315958;33;34629;-79
2022/05/17 10:08:15;;;;;;;11.25;8.50;;;;;;;18.80;95.52;99833.81;4303846;33;35377;-79
2022/05/17 10:11:06;;;;;;;12.70;8.77;;;;;;;18.97;93.88;99840.94;4314954;33;36121;-78
2022/05/17 10:13:58;;;;;;;13.02;9.57;;;;;;;18.80;96.18;99840.16;4303029;33;34328;-79
2022/05/17 10:16:56;;;;;;;12.75;9.15;;;;;;;19.06;96.28;99833.19;4311831;33;34584;-78
2022/05/17 10:19:55;;;;;;;13.05;8.23;;;;;;;18.95;94.52;99840.50;4314034;33;34110;-79
2022/05/17 10:23:04;;;;;;;12.32;8.25;;;;;;;19.02;91.20;99835.09;4312688;33;34211;-79
2022/05/17 10:26:06;;;;;;;12.25;8.82;;;;;;;19.50;89.82;99836.53;4312244;33;35558;-78
2022/05/17 10:28:59;;;;;;;11.68;9.07;;;;;;;18.92;92.10;99833.69;4312140;33;34558;-79
2022/05/17 10:31:58;;;;;;;14.18;8.63;;;;;;;19.21;91.88;99837.09;4314108;33;35215;-78
2022/05/17 10:35:30;;;;;;;12.15;8.30;;;;;;;19.12;95.53;99828.16;4311276;33;33729;-78
2022/05/17 10:38:23;;;;;;;13.27;7.57;;;;;;;19.63;89.57;99831.59;4308167;33;35447;-78
2022/05/17 10:41:12;;;;;;;13.02;8.30;;;;;;;19.11;90.00;99830.16;4301485;33;34941;-78
2022/05/17 10:43:59;;;;;;;12.20;8.15;;;;;;;19.15;92.64;99828.22;4311503;33;35736;-78
2022/05/17 10:46:52;;;;;;;13.02;8.68;;;;;;;19.25;90.05;99830.44;4314906;33;34454;-77
2022/05/17 10:49:44;;;;;;;10.63;7.55;;;;;;;19.22;90.42;99836.72;4310449;33;35243;-78
2022/05/17 10:52:44;;;;;;;10.90;8.50;;;;;;;19.10;93.69;99828.53;4312342;33;34983;-77
2022/05/17 10:56:03;;;;;;;9.45;7.55;;;;;;;19.59;91.19;99833.53;4310183;33;34237;-77
2022/05/17 10:58:57;;;;;;;9.68;7.43;;;;;;;19.88;86.19;99831.31;4312989;33;34184;-78
2022/05/17 11:02:09;;;;;;;14.40;7.45;;;;;;;19.82;86.53;99824.44;4310535;33;34456;-85
2022/05/17 11:05:12;;;;;;;14.75;8.35;;;;;;;20.06;88.45;99831.63;4310615;33;33869;-84
2022/05/17 11:08:06;;;;;;;9.88;7.62;;;;;;;19.90;84.92;99824.22;4312863;33;34632;-85
2022/05/17 11:10:59;;;;;;;11.55;7.65;;;;;;;19.74;84.94;99824.31;4311923;33;34749;-85
2022/05/17 11:13:56;;;;;;;9.82;6.75;;;;;;;20.47;83.16;99827.16;4313068;33;34559;-85
2022/05/17 11:16:51;;;;;;;11.85;7.40;;;;;;;21.00;79.78;99829.97;4309462;33;34872;-84
2022/05/17 11:20:05;;;;;;;15.80;7.75;;;;;;;21.09;79.22;99813.00;4310245;33;35072;-84
2022/05/17 11:23:22;;;;;;;10.57;6.90;;;;;;;20.65;82.92;99817.13;4303298;33;34226;-84
2022/05/17 11:26:29;;;;;;;12.50;7.25;;;;;;;19.92;82.44;99813.53;4311466;33;35568;-85
2022/05/17 11:29:34;;;;;;;11.05;6.68;;;;;;;19.95;81.35;99809.19;4310910;33;35060;-84
2022/05/17 11:32:30;;;;;;;10.23;6.97;;;;;;;20.21;80.52;99803.69;4308823;33;34667;-83
2022/05/17 11:35:29;;;;;;;9.00;6.62;;;;;;;20.89;78.55;99809.53;4311711;33;33971;-84
2022/05/17 11:38:37;;;;;;;9.77;6.68;;;;;;;21.11;79.34;99805.84;4313371;33;34696;-84
2022/05/17 11:41:33;;;;;;;10.15;6.50;;;;;;;21.34;76.33;99799.34;4308903;33;35039;-84
2022/05/17 11:44:24;;;;;;;9.18;6.80;;;;;;;21.21;76.74;99795.22;4312452;33;33847;-84
2022/05/17 11:47:36;;;;;;;11.50;7.32;;;;;;;21.84;77.37;99791.59;4311645;33;35464;-83
2022/05/17 11:50:42;;;;;;;10.38;7.45;;;;;;;21.58;77.34;99786.13;4311849;33;33355;-84
2022/05/17 11:53:33;;;;;;;13.18;7.35;;;;;;;21.66;75.18;99785.00;4313830;33;35609;-85
2022/05/17 11:56:26;;;;;;;;;;;;;;;21.29;72.78;99783.78;4302957;33;34680;-84
2022/05/17 11:59:13;;;;;;;9.63;7.05;;;;;;;21.14;75.85;99781.19;4311291;33;34359;-84
2022/05/17 12:02:11;;;;;;;14.77;8.45;;;;;;;20.64;81.18;99781.34;4311911;33;35495;-85
2022/05/17 12:04:57;;;;;;;12.63;7.32;;;;;;;20.51;81.22;99783.47;4300570;33;36476;-85
2022/05/17 12:07:43;;;;;;;12.20;7.70;;;;;;;20.58;80.61;99780.84;4316201;33;35210;-84
2022/05/17 12:10:30;;;;;;;10.57;7.57;;;;;;;20.71;78.75;99775.06;4315307;33;35269;-84
2022/05/17 12:13:18;;;;;;;10.77;7.25;;;;;;;20.91;76.98;99779.31;4314197;33;34923;-83
2022/05/17 12:16:07;;;;;;;10.85;8.18;;;;;;;20.86;78.17;99777.69;4314090;33;34752;-83
2022/05/17 12:18:59;;;;;;;9.85;7.53;;;;;;;20.67;78.26;99770.25;4314139;33;35523;-83
2022/05/17 12:21:57;;;;;;;13.75;7.75;;;;;;;20.95;79.52;99779.37;4313727;33;33941;-84
2022/05/17 12:25:15;;;;;;;10.65;7.62;;;;;;;20.96;76.41;99772.63;4315725;33;35525;-85
2022/05/17 12:28:02;;;;;;;9.73;7.62;;;;;;;20.57;76.73;99778.44;4317061;33;35334;-83
2022/05/17 12:30:53;;;;;;;10.98;8.00;;;;;;;20.58;76.37;99771.69;4312882;33;35188;-84
2022/05/17 12:33:44;;;;;;;10.10;7.10;;;;;;;20.48;76.93;99769.53;4314626;33;35748;-84
2022/05/17 12:36:31;;;;;;;11.77;7.85;;;;;;;20.86;77.37;99768.50;4300909;33;35592;-84
2022/05/17 12:45:43;;;;;;;11.43;8.23;;;;;;;20.90;76.00;99755.44;4314131;33;34532;-85
2022/05/17 12:48:32;;;;;;;10.45;8.35;;;;;;;20.86;76.80;99746.22;4314640;33;34144;-84
2022/05/17 12:51:20;;;;;;;11.73;8.98;;;;;;;20.80;76.37;99750.50;4313818;33;34487;-85
2022/05/17 12:54:13;;;;;;;11.12;8.48;;;;;;;20.58;78.21;99755.81;4317214;33;35193;-83
2022/05/17 12:57:25;;;;;;;11.88;8.80;;;;;;;20.59;76.10;99751.81;4316572;33;35162;-84
2022/05/17 13:00:17;;;;;;;;;;;;;;;21.21;72.63;99745.06;4314459;33;33784;-84
2022/05/17 13:03:16;;;;;;;12.80;7.85;;;;;;;20.69;75.29;99733.69;4316333;33;34863;-83
2022/05/17 13:06:05;;;;;;;11.80;7.62;;;;;;;20.44;73.40;99738.88;4313450;33;34804;-83
2022/05/17 13:08:57;;;;;;;11.18;8.20;;;;;;;20.27;74.61;99736.63;4316529;33;34271;-83
2022/05/17 13:11:44;;;;;;;14.57;8.07;;;;;;;20.18;74.69;99734.91;4306334;33;34727;-84
2022/05/17 13:14:33;;;;;;;12.65;8.60;;;;;;;20.34;75.06;99733.94;4315272;33;35902;-84
2022/05/17 13:17:33;;;;;;;13.82;9.30;;;;;;;20.21;75.88;99731.38;4317096;33;34295;-85
2022/05/17 13:20:29;;;;;;;11.75;9.32;;;;;;;20.35;74.75;99741.09;4304133;33;35089;-84
2022/05/17 13:23:22;;;;;;;13.10;9.57;;;;;;;20.63;74.20;99735.16;4314733;33;34182;-86
2022/05/17 13:26:10;;;;;;;11.57;8.32;;;;;;;20.73;74.24;99733.72;4304465;33;34566;-84
2022/05/17 13:29:11;;;;;;;10.80;7.53;;;;;;;20.22;74.71;99730.19;4314678;33;34672;-89
2022/05/17 13:32:04;;;;;;;12.55;8.02;;;;;;;20.54;71.77;99740.22;4316203;33;34451;-86
2022/05/17 13:35:10;;;;;;;11.32;7.12;;;;;;;20.36;72.02;99737.16;4303598;33;34473;-86
2022/05/17 13:38:03;;;;;;;8.65;6.05;;;;;;;20.05;72.89;99725.13;4314794;33;34632;-84